createdAt,value
2019-04-21T00:00:25.954Z,16.05
2019-04-21T00:02:55.455Z,14.15
2019-04-21T00:05:47.367Z,15.00
2019-04-21T00:08:27.152Z,14.37
2019-04-21T00:10:51.610Z,13.55
2019-04-21T00:13:16.623Z,14.07
2019-04-21T00:15:32.901Z,14.93
2019-04-21T00:18:06.880Z,13.88
2019-04-21T00:20:42.456Z,13.80
2019-04-21T00:23:24.256Z,15.70
2019-04-21T00:25:50.016Z,14.23
2019-04-21T00:28:34.704Z,13.75
2019-04-21T00:30:57.010Z,17.10
2019-04-21T00:33:17.193Z,13.48
2019-04-21T00:35:47.730Z,15.05
2019-04-21T00:38:34.589Z,15.45
2019-04-21T00:41:08.783Z,15.23
2019-04-21T00:43:28.000Z,15.68
2019-04-21T00:45:56.973Z,14.60
2019-04-21T00:48:34.499Z,14.93
2019-04-21T00:51:24.990Z,16.62
2019-04-21T00:53:58.321Z,14.20
2019-04-21T00:56:21.788Z,16.97
2019-04-21T00:58:53.708Z,15.15
2019-04-21T01:01:19.785Z,14.15
2019-04-21T01:03:57.888Z,14.85
2019-04-21T01:06:22.710Z,15.38
2019-04-21T01:08:55.449Z,14.23
2019-04-21T01:11:23.971Z,13.85
2019-04-21T01:13:58.088Z,16.02
2019-04-21T01:16:35.067Z,15.20
2019-04-21T01:18:54.532Z,13.90
2019-04-21T01:21:14.399Z,14.98
2019-04-21T01:23:42.400Z,13.62
2019-04-21T01:26:22.579Z,16.62
2019-04-21T01:29:00.085Z,15.48
2019-04-21T01:31:28.591Z,16.55
2019-04-21T01:34:03.305Z,16.25
2019-04-21T01:36:33.347Z,15.15
2019-04-21T01:39:08.380Z,14.73
2019-04-21T01:41:42.843Z,15.47
2019-04-21T01:44:01.537Z,14.73
2019-04-21T01:46:33.555Z,14.75
2019-04-21T01:49:03.339Z,14.68
2019-04-21T01:51:45.418Z,16.17
2019-04-21T01:54:31.750Z,15.75
2019-04-21T01:56:59.564Z,15.98
2019-04-21T01:59:26.862Z,14.83
2019-04-21T02:02:06.217Z,16.25
2019-04-21T02:04:36.404Z,14.50
2019-04-21T02:07:04.311Z,14.75
2019-04-21T02:09:38.060Z,15.28
2019-04-21T02:12:10.613Z,15.75
2019-04-21T02:14:45.639Z,15.08
2019-04-21T02:17:14.771Z,14.43
2019-04-21T02:19:39.602Z,15.18
2019-04-21T02:22:04.582Z,14.25
2019-04-21T02:27:17.402Z,14.13
2019-04-21T02:29:50.253Z,14.28
2019-04-21T02:35:30.545Z,17.12
2019-04-21T02:37:53.586Z,14.60
2019-04-21T02:40:21.527Z,13.95
2019-04-21T02:42:56.024Z,13.22
2019-04-21T02:45:23.192Z,16.05
2019-04-21T02:47:56.906Z,17.30
2019-04-21T02:52:53.486Z,15.65
2019-04-21T02:55:22.046Z,15.58
2019-04-21T02:58:00.080Z,14.90
2019-04-21T03:00:32.570Z,18.67
2019-04-21T03:03:22.304Z,18.80
2019-04-21T03:05:50.969Z,14.10
2019-04-21T03:08:34.291Z,13.70
2019-04-21T03:11:04.916Z,15.93
2019-04-21T03:13:29.818Z,14.28
2019-04-21T03:15:59.191Z,13.35
2019-04-21T03:23:33.651Z,14.63
2019-04-21T03:26:05.198Z,15.05
2019-04-21T03:28:30.159Z,14.50
2019-04-21T03:31:32.102Z,13.98
2019-04-21T03:41:06.106Z,14.38
2019-04-21T03:43:34.589Z,14.90
2019-04-21T03:46:03.949Z,14.23
2019-04-21T03:48:36.583Z,13.18
2019-04-21T03:51:07.764Z,14.67
2019-04-21T03:53:34.032Z,13.37
2019-04-21T03:56:00.660Z,15.30
2019-04-21T03:58:50.505Z,14.35
2019-04-21T04:01:16.519Z,16.70
2019-04-21T04:04:09.376Z,13.70
2019-04-21T04:06:28.244Z,16.12
2019-04-21T04:19:26.368Z,16.17
2019-04-21T04:24:34.125Z,13.22
2019-04-21T04:26:57.097Z,16.37
2019-04-21T04:29:26.272Z,13.68
2019-04-21T04:32:16.964Z,15.60
2019-04-21T04:34:35.976Z,14.43
2019-04-21T04:37:06.027Z,14.87
2019-04-21T04:39:44.844Z,13.62
2019-04-21T04:49:49.853Z,15.15
2019-04-21T04:57:13.855Z,14.28
2019-04-21T04:59:49.618Z,14.30
2019-04-21T05:02:20.307Z,15.40
2019-04-21T05:04:59.254Z,12.63
2019-04-21T05:07:13.893Z,13.80
2019-04-21T05:09:50.101Z,13.75
2019-04-21T05:12:11.774Z,16.07
2019-04-21T05:14:46.144Z,14.27
2019-04-21T05:17:21.539Z,15.08
2019-04-21T05:19:53.968Z,15.28
2019-04-21T05:24:37.981Z,14.33
2019-04-21T05:27:07.501Z,12.80
2019-04-21T05:29:50.489Z,12.78
2019-04-21T05:32:21.926Z,13.28
2019-04-21T05:34:55.732Z,12.88
2019-04-21T05:37:28.633Z,13.22
2019-04-21T05:40:00.679Z,13.40
2019-04-21T05:42:35.254Z,13.18
2019-04-21T05:45:27.185Z,13.73
2019-04-21T05:48:05.957Z,12.88
2019-04-21T05:50:21.716Z,12.75
2019-04-21T05:52:51.385Z,13.48
2019-04-21T05:58:02.638Z,12.37
2019-04-21T06:00:55.950Z,13.88
2019-04-21T06:03:11.565Z,12.97
2019-04-21T06:05:49.231Z,12.37
2019-04-21T06:08:15.980Z,14.68
2019-04-21T06:10:50.319Z,12.82
2019-04-21T06:13:21.729Z,14.07
2019-04-21T06:15:52.569Z,15.72
2019-04-21T06:18:27.043Z,13.68
2019-04-21T06:20:56.920Z,14.13
2019-04-21T06:23:25.402Z,12.90
2019-04-21T06:26:11.191Z,13.98
2019-04-21T06:28:28.410Z,13.38
2019-04-21T06:31:05.916Z,15.23
2019-04-21T06:33:34.118Z,14.18
2019-04-21T06:36:24.057Z,13.25
2019-04-21T06:41:22.186Z,14.63
2019-04-21T06:43:56.610Z,15.55
2019-04-21T06:46:25.625Z,14.53
2019-04-21T06:48:57.070Z,14.43
2019-04-21T06:51:22.456Z,15.23
2019-04-21T06:53:59.057Z,18.20
2019-04-21T06:56:32.347Z,15.98
2019-04-21T06:58:50.249Z,14.13
2019-04-21T07:01:34.251Z,15.60
2019-04-21T07:04:09.904Z,15.13
2019-04-21T07:06:30.151Z,15.40
2019-04-21T07:09:10.325Z,15.38
2019-04-21T07:11:25.540Z,16.55
2019-04-21T07:14:16.095Z,16.32
2019-04-21T07:16:31.730Z,14.40
2019-04-21T07:19:09.932Z,15.72
2019-04-21T07:21:29.751Z,17.48
2019-04-21T07:24:06.448Z,15.18
2019-04-21T07:26:36.809Z,17.35
2019-04-21T07:29:07.964Z,16.70
2019-04-21T07:31:40.121Z,15.68
2019-04-21T07:34:19.729Z,19.75
2019-04-21T07:36:48.104Z,18.60
2019-04-21T07:39:05.854Z,17.37
2019-04-21T07:41:34.051Z,17.40
2019-04-21T07:43:59.206Z,17.50
2019-04-21T07:46:30.881Z,15.65
2019-04-21T07:49:14.041Z,17.42
2019-04-21T07:52:09.014Z,18.42
2019-04-21T07:54:39.343Z,17.85
2019-04-21T07:56:52.429Z,17.17
2019-04-21T07:59:46.089Z,17.07
2019-04-21T08:02:01.182Z,15.72
2019-04-21T08:07:07.277Z,17.90
2019-04-21T08:09:42.580Z,18.20
2019-04-21T08:12:04.064Z,15.93
2019-04-21T08:14:43.678Z,16.95
2019-04-21T08:17:14.767Z,16.77
2019-04-21T08:19:42.999Z,18.67
2019-04-21T08:22:22.282Z,16.95
2019-04-21T08:24:43.754Z,16.95
2019-04-21T08:27:18.973Z,16.05
2019-04-21T08:29:46.036Z,17.12
2019-04-21T08:32:22.955Z,15.45
2019-04-21T08:34:55.844Z,16.20
2019-04-21T08:37:18.290Z,17.05
2019-04-21T08:39:58.116Z,15.55
2019-04-21T08:42:16.892Z,16.50
2019-04-21T08:44:54.141Z,14.90
2019-04-21T08:47:25.650Z,15.85
2019-04-21T08:49:55.290Z,16.53
2019-04-21T08:52:38.096Z,16.07
2019-04-21T08:55:18.386Z,20.77
2019-04-21T08:58:08.466Z,17.30
2019-04-21T09:00:38.855Z,16.30
2019-04-21T09:03:08.735Z,16.37
2019-04-21T09:05:36.700Z,17.12
2019-04-21T09:08:10.560Z,18.92
2019-04-21T09:10:41.737Z,18.57
2019-04-21T09:13:10.278Z,18.35
2019-04-21T09:15:43.237Z,17.25
2019-04-21T09:18:13.370Z,17.98
2019-04-21T09:20:52.179Z,16.23
2019-04-21T09:23:19.518Z,17.07
2019-04-21T09:25:52.594Z,15.93
2019-04-21T09:28:18.296Z,17.37
2019-04-21T09:30:39.515Z,14.63
2019-04-21T09:33:05.278Z,13.25
2019-04-21T09:35:33.445Z,12.20
2019-04-21T09:38:16.215Z,12.93
2019-04-21T09:40:40.349Z,12.53
2019-04-21T09:43:11.217Z,11.73
2019-04-21T09:45:37.966Z,13.30
2019-04-21T09:48:13.259Z,12.55
2019-04-21T09:50:39.809Z,12.53
2019-04-21T09:53:16.850Z,12.58
2019-04-21T09:55:48.697Z,14.50
2019-04-21T09:58:23.118Z,12.53
2019-04-21T10:00:50.880Z,11.45
2019-04-21T10:03:15.511Z,10.95
2019-04-21T10:05:43.140Z,14.07
2019-04-21T10:08:12.519Z,12.90
2019-04-21T10:10:42.470Z,14.35
2019-04-21T10:13:12.651Z,12.10
2019-04-21T10:15:42.208Z,13.43
2019-04-21T10:18:13.047Z,12.73
2019-04-21T10:20:42.787Z,14.90
2019-04-21T10:23:11.967Z,11.40
2019-04-21T10:25:40.990Z,11.08
2019-04-21T10:28:11.282Z,9.90
2019-04-21T10:30:40.724Z,11.90
2019-04-21T10:33:10.393Z,10.65
2019-04-21T10:35:39.516Z,11.80
2019-04-21T10:38:21.805Z,14.20
2019-04-21T10:40:39.266Z,13.43
2019-04-21T10:43:11.612Z,12.20
2019-04-21T10:45:39.231Z,13.08
2019-04-21T10:48:08.054Z,11.45
2019-04-21T10:50:37.092Z,11.93
2019-04-21T10:53:11.124Z,14.85
2019-04-21T10:55:57.800Z,12.25
2019-04-21T10:58:16.542Z,11.40
2019-04-21T11:00:51.108Z,10.95
2019-04-21T11:03:29.056Z,10.82
2019-04-21T11:06:08.662Z,11.88
2019-04-21T11:08:41.675Z,10.40
2019-04-21T11:11:08.030Z,10.00
2019-04-21T11:13:38.725Z,11.95
2019-04-21T11:16:08.901Z,10.15
2019-04-21T11:18:38.085Z,12.03
2019-04-21T11:21:07.285Z,10.93
2019-04-21T11:23:37.479Z,11.12
2019-04-21T11:26:06.558Z,11.85
2019-04-21T11:28:36.665Z,10.82
2019-04-21T11:31:07.022Z,11.25
2019-04-21T11:33:37.479Z,9.18
2019-04-21T11:36:09.094Z,9.85
2019-04-21T11:38:57.671Z,9.47
2019-04-21T11:41:11.829Z,9.65
2019-04-21T11:43:41.330Z,12.95
2019-04-21T11:46:10.941Z,10.38
2019-04-21T11:48:40.041Z,8.25
2019-04-21T11:51:09.193Z,9.68
2019-04-21T11:53:39.106Z,8.98
2019-04-21T11:56:09.018Z,9.20
2019-04-21T11:58:40.032Z,9.25
2019-04-21T12:01:10.153Z,10.27
2019-04-21T12:03:39.927Z,7.78
2019-04-21T12:06:09.269Z,8.55
2019-04-21T12:08:43.950Z,9.10
2019-04-21T12:11:09.417Z,9.90
2019-04-21T12:13:42.363Z,8.15
2019-04-21T12:16:12.880Z,7.62
2019-04-21T12:18:42.946Z,9.55
2019-04-21T12:21:15.746Z,8.28
2019-04-21T12:23:45.020Z,8.13
2019-04-21T12:26:16.249Z,9.53
2019-04-21T12:28:45.953Z,8.78
2019-04-21T12:31:17.860Z,8.73
2019-04-21T12:34:00.942Z,8.80
2019-04-21T12:36:29.946Z,8.38
2019-04-21T12:39:01.751Z,11.18
2019-04-21T12:41:30.821Z,9.13
2019-04-21T12:44:00.473Z,9.55
2019-04-21T12:46:31.855Z,8.35
2019-04-21T12:49:02.037Z,10.88
2019-04-21T12:51:31.122Z,8.08
2019-04-21T12:54:01.523Z,9.05
2019-04-21T12:56:31.589Z,7.92
2019-04-21T12:59:01.536Z,8.58
2019-04-21T13:01:30.762Z,7.12
2019-04-21T13:04:01.836Z,7.12
2019-04-21T13:06:31.779Z,7.35
2019-04-21T13:09:05.790Z,8.53
2019-04-21T13:11:33.058Z,8.17
2019-04-21T13:14:03.993Z,8.27
2019-04-21T13:16:33.705Z,9.68
2019-04-21T13:19:04.989Z,8.37
2019-04-21T13:21:34.385Z,9.48
2019-04-21T13:24:04.930Z,7.60
2019-04-21T13:26:43.054Z,8.30
2019-04-21T13:29:06.035Z,8.63
2019-04-21T13:31:36.242Z,8.03
2019-04-21T13:34:08.268Z,8.50
2019-04-21T13:36:39.273Z,7.92
2019-04-21T13:39:53.738Z,10.38
2019-04-21T13:42:10.110Z,6.90
2019-04-21T13:44:28.885Z,6.83
2019-04-21T13:47:00.857Z,7.00
2019-04-21T13:49:29.986Z,6.72
2019-04-21T13:51:58.653Z,6.72
2019-04-21T13:54:29.535Z,6.80
2019-04-21T13:57:00.560Z,7.92
2019-04-21T13:59:30.275Z,7.10
2019-04-21T14:02:02.371Z,6.17
2019-04-21T14:04:29.698Z,8.38
2019-04-21T14:07:00.497Z,7.45
2019-04-21T14:09:43.102Z,8.10
2019-04-21T14:12:01.342Z,6.92
2019-04-21T14:14:32.232Z,6.92
2019-04-21T14:17:05.267Z,6.10
2019-04-21T14:19:33.483Z,9.63
2019-04-21T14:22:03.450Z,8.95
2019-04-21T14:24:32.909Z,7.45
2019-04-21T14:27:02.678Z,7.65
2019-04-21T14:29:33.381Z,8.08
2019-04-21T14:32:02.553Z,8.08
2019-04-21T14:34:34.033Z,5.95
2019-04-21T14:37:04.500Z,6.10
2019-04-21T14:39:35.718Z,7.53
2019-04-21T14:42:06.353Z,6.72
2019-04-21T14:44:36.508Z,6.87
2019-04-21T14:47:16.435Z,8.08
2019-04-21T14:49:47.115Z,9.40
2019-04-21T14:52:19.119Z,6.12
2019-04-21T14:54:54.454Z,7.05
2019-04-21T14:57:25.154Z,6.35
2019-04-21T14:59:55.132Z,5.67
2019-04-21T15:02:25.682Z,6.67
2019-04-21T15:04:55.657Z,5.70
2019-04-21T15:07:25.555Z,5.70
2019-04-21T15:10:04.722Z,5.22
2019-04-21T15:12:25.803Z,5.28
2019-04-21T15:14:56.009Z,6.40
2019-04-21T15:17:26.121Z,6.50
2019-04-21T15:20:01.387Z,5.22
2019-04-21T15:22:26.438Z,5.22
2019-04-21T15:24:56.346Z,5.35
2019-04-21T15:27:25.401Z,6.20
2019-04-21T15:29:54.838Z,6.60
2019-04-21T15:32:28.357Z,5.87
2019-04-21T15:34:58.278Z,5.33
2019-04-21T15:37:28.829Z,6.60
2019-04-21T15:39:58.528Z,5.13
2019-04-21T15:42:32.625Z,5.20
2019-04-21T15:45:04.722Z,4.70
2019-04-21T15:47:34.010Z,5.40
2019-04-21T15:50:10.494Z,5.62
2019-04-21T15:52:36.031Z,5.65
2019-04-21T15:55:14.664Z,4.95
2019-04-21T15:57:58.610Z,6.60
2019-04-21T16:00:42.691Z,4.40
2019-04-21T16:03:12.944Z,4.83
2019-04-21T16:05:42.664Z,5.67
2019-04-21T16:08:12.216Z,6.22
2019-04-21T16:10:48.989Z,4.92
2019-04-21T16:13:13.869Z,4.70
2019-04-21T16:15:44.248Z,4.75
2019-04-21T16:18:14.194Z,3.47
2019-04-21T16:20:43.954Z,3.92
2019-04-21T16:23:13.085Z,4.22
2019-04-21T16:25:41.983Z,5.07
2019-04-21T16:28:11.466Z,4.53
2019-04-21T16:30:42.530Z,4.05
2019-04-21T16:33:12.269Z,4.65
2019-04-21T16:35:42.006Z,4.92
2019-04-21T16:38:11.310Z,5.30
2019-04-21T16:40:48.940Z,5.33
2019-04-21T16:43:12.233Z,5.30
2019-04-21T16:45:42.847Z,5.40
2019-04-21T16:48:12.996Z,5.53
2019-04-21T16:50:43.513Z,4.78
2019-04-21T16:53:32.200Z,5.20
2019-04-21T16:56:06.932Z,4.80
2019-04-21T16:58:44.881Z,4.70
2019-04-21T17:01:18.218Z,5.45
2019-04-21T17:03:48.587Z,4.70
2019-04-21T17:06:19.451Z,4.60
2019-04-21T17:08:48.552Z,4.67
2019-04-21T17:11:25.317Z,4.83
2019-04-21T17:13:50.003Z,4.80
2019-04-21T17:16:44.915Z,5.08
2019-04-21T17:19:19.157Z,4.58
2019-04-21T17:21:41.630Z,4.70
2019-04-21T17:24:10.638Z,5.25
2019-04-21T17:26:42.534Z,5.30
2019-04-21T17:29:10.707Z,5.12
2019-04-21T17:31:41.308Z,4.85
2019-04-21T17:34:19.562Z,3.98
2019-04-21T17:36:45.351Z,3.05
2019-04-21T17:39:14.588Z,2.98
2019-04-21T17:42:01.992Z,4.70
2019-04-21T17:44:15.116Z,3.47
2019-04-21T17:46:53.647Z,3.60
2019-04-21T17:49:16.998Z,5.35
2019-04-21T17:51:53.735Z,3.15
2019-04-21T17:54:27.630Z,3.40
2019-04-21T17:57:12.473Z,3.17
2019-04-21T17:59:51.134Z,3.53
2019-04-21T18:02:08.006Z,3.75
2019-04-21T18:04:41.493Z,5.72
2019-04-21T18:07:18.964Z,3.67
2019-04-21T18:09:59.093Z,4.15
2019-04-21T18:12:16.607Z,3.62
2019-04-21T18:14:36.757Z,4.37
2019-04-21T18:17:06.545Z,4.10
2019-04-21T18:19:41.066Z,5.90
2019-04-21T18:22:33.035Z,4.72
2019-04-21T18:25:05.697Z,5.20
2019-04-21T18:27:29.802Z,5.30
2019-04-21T18:30:00.378Z,5.70
2019-04-21T18:32:34.133Z,5.17
2019-04-21T18:35:17.737Z,6.12
2019-04-21T18:38:03.447Z,5.00
2019-04-21T18:40:28.008Z,5.33
2019-04-21T18:43:32.508Z,6.28
2019-04-21T18:46:00.605Z,6.10
2019-04-21T18:48:21.837Z,6.33
2019-04-21T18:51:02.674Z,6.03
2019-04-21T18:53:48.090Z,5.80
2019-04-21T18:56:08.250Z,7.50
2019-04-21T18:58:35.979Z,5.65
2019-04-21T19:01:12.103Z,5.80
2019-04-21T19:03:41.530Z,5.22
2019-04-21T19:06:11.474Z,5.50
2019-04-21T19:09:01.214Z,5.62
2019-04-21T19:11:30.590Z,3.90
2019-04-21T19:14:29.108Z,4.80
2019-04-21T19:17:01.130Z,4.12
2019-04-21T19:21:49.919Z,6.85
2019-04-21T19:24:24.340Z,7.80
2019-04-21T19:26:55.881Z,6.15
2019-04-21T19:29:24.114Z,7.28
2019-04-21T19:31:50.665Z,6.58
2019-04-21T19:34:11.365Z,6.60
2019-04-21T19:36:33.146Z,10.53
2019-04-21T19:39:11.564Z,6.90
2019-04-21T19:41:50.967Z,7.80
2019-04-21T19:44:22.170Z,8.13
2019-04-21T19:46:55.462Z,8.38
2019-04-21T19:49:32.390Z,9.08
2019-04-21T19:51:50.326Z,8.48
2019-04-21T19:54:18.674Z,8.83
2019-04-21T19:56:40.845Z,8.10
2019-04-21T19:59:11.884Z,9.13
2019-04-21T20:01:41.729Z,8.53
2019-04-21T20:04:10.635Z,10.32
2019-04-21T20:06:53.290Z,9.50
2019-04-21T20:09:28.041Z,11.40
2019-04-21T20:11:55.055Z,11.20
2019-04-21T20:14:51.028Z,13.55
2019-04-21T20:16:57.769Z,10.18
2019-04-21T20:19:19.315Z,12.65
2019-04-21T20:21:47.511Z,12.07
2019-04-21T20:24:24.891Z,10.67
2019-04-21T20:27:00.129Z,12.25
2019-04-21T20:29:37.454Z,13.78
2019-04-21T20:32:04.812Z,12.98
2019-04-21T20:34:49.316Z,11.90
2019-04-21T20:37:19.634Z,13.50
2019-04-21T20:39:29.536Z,10.43
2019-04-21T20:42:09.659Z,12.00
2019-04-21T20:44:43.796Z,11.25
2019-04-21T20:47:08.034Z,10.63
2019-04-21T20:49:35.050Z,11.20
2019-04-21T20:52:18.919Z,10.63
2019-04-21T20:54:45.374Z,11.83
2019-04-21T20:57:18.055Z,9.35
2019-04-21T20:59:45.164Z,10.70
2019-04-21T21:02:20.056Z,8.45
2019-04-21T21:04:43.491Z,7.40
2019-04-21T21:07:34.604Z,6.20
2019-04-21T21:10:00.415Z,5.97
2019-04-21T21:12:35.894Z,7.27
2019-04-21T21:14:50.244Z,7.33
2019-04-21T21:17:39.305Z,7.60
2019-04-21T21:19:59.691Z,7.58
2019-04-21T21:22:29.086Z,9.63
2019-04-21T21:25:03.880Z,8.50
2019-04-21T21:27:32.153Z,8.40
2019-04-21T21:30:00.691Z,9.13
2019-04-21T21:32:37.050Z,8.70
2019-04-21T21:35:12.007Z,12.53
2019-04-21T21:37:40.969Z,13.43
2019-04-21T21:40:11.439Z,9.53
2019-04-21T21:42:28.299Z,10.40
2019-04-21T21:45:01.223Z,11.33
2019-04-21T21:47:46.246Z,8.70
2019-04-21T21:50:07.711Z,11.03
2019-04-21T21:52:42.607Z,10.70
2019-04-21T21:54:58.121Z,10.50
2019-04-21T21:57:32.953Z,8.28
2019-04-21T22:00:05.630Z,11.05
2019-04-21T22:02:40.753Z,11.77
2019-04-21T22:05:11.087Z,11.75
2019-04-21T22:07:38.733Z,10.50
2019-04-21T22:10:08.582Z,11.15
2019-04-21T22:12:45.737Z,10.82
2019-04-21T22:15:18.621Z,10.15
2019-04-21T22:18:05.958Z,9.23
2019-04-21T22:20:33.340Z,9.63
2019-04-21T22:22:51.718Z,10.90
2019-04-21T22:25:22.675Z,8.18
2019-04-21T22:27:46.448Z,8.83
2019-04-21T22:30:26.107Z,10.10
2019-04-21T22:32:55.283Z,9.10
2019-04-21T22:35:27.349Z,11.30
2019-04-21T22:38:01.816Z,8.90
2019-04-21T22:40:29.150Z,8.68
2019-04-21T22:43:01.822Z,7.97
2019-04-21T22:45:23.264Z,8.00
2019-04-21T22:47:58.710Z,8.43
2019-04-21T22:50:28.817Z,7.00
2019-04-21T22:53:03.500Z,7.35
2019-04-21T22:55:33.453Z,8.13
2019-04-21T22:58:04.990Z,7.53
2019-04-21T23:00:41.338Z,9.75
2019-04-21T23:03:10.627Z,8.83
2019-04-21T23:05:41.189Z,8.93
2019-04-21T23:08:09.307Z,8.50
2019-04-21T23:10:43.803Z,9.63
2019-04-21T23:13:13.142Z,8.38
2019-04-21T23:15:46.147Z,10.18
2019-04-21T23:18:25.951Z,9.83
2019-04-21T23:20:57.745Z,10.40
2019-04-21T23:23:35.881Z,10.75
2019-04-21T23:26:03.144Z,10.72
2019-04-21T23:28:40.304Z,8.90
2019-04-21T23:31:10.016Z,9.50
2019-04-21T23:33:21.481Z,8.80
2019-04-21T23:35:58.250Z,7.78
2019-04-21T23:38:26.576Z,8.90
2019-04-21T23:40:57.784Z,10.10
2019-04-21T23:43:27.307Z,9.90
2019-04-21T23:45:54.025Z,8.50
2019-04-21T23:48:32.508Z,7.67
2019-04-21T23:51:08.144Z,9.67
2019-04-21T23:53:25.589Z,9.50
2019-04-21T23:55:55.283Z,10.43
2019-04-21T23:58:27.884Z,9.10
